sensor_id;sensor_type;location;lat;lon;timestamp;P1;durP1;ratioP1;P2;durP2;ratioP2
34657;SDS011;20865;43.312;27.152;2023-12-22T00:02:26;35.23;;;15.72;;
34657;SDS011;20865;43.312;27.152;2023-12-22T00:04:54;39.13;;;16.10;;
34657;SDS011;20865;43.312;27.152;2023-12-22T00:07:21;40.58;;;16.23;;
34657;SDS011;20865;43.312;27.152;2023-12-22T00:09:49;40.55;;;17.27;;
34657;SDS011;20865;43.312;27.152;2023-12-22T00:12:17;40.28;;;17.27;;
34657;SDS011;20865;43.312;27.152;2023-12-22T00:14:44;33.25;;;17.10;;
34657;SDS011;20865;43.312;27.152;2023-12-22T00:17:12;37.50;;;16.10;;
34657;SDS011;20865;43.312;27.152;2023-12-22T00:19:40;40.88;;;17.17;;
34657;SDS011;20865;43.312;27.152;2023-12-22T00:22:07;36.73;;;16.80;;
34657;SDS011;20865;43.312;27.152;2023-12-22T00:24:35;40.98;;;16.57;;
34657;SDS011;20865;43.312;27.152;2023-12-22T00:27:03;45.08;;;16.67;;
34657;SDS011;20865;43.312;27.152;2023-12-22T00:29:31;34.90;;;14.98;;
34657;SDS011;20865;43.312;27.152;2023-12-22T00:32:01;37.10;;;15.98;;
34657;SDS011;20865;43.312;27.152;2023-12-22T00:34:30;37.70;;;16.55;;
34657;SDS011;20865;43.312;27.152;2023-12-22T00:36:58;36.83;;;16.62;;
34657;SDS011;20865;43.312;27.152;2023-12-22T00:39:25;41.10;;;16.25;;
34657;SDS011;20865;43.312;27.152;2023-12-22T00:41:53;36.40;;;15.88;;
34657;SDS011;20865;43.312;27.152;2023-12-22T00:44:20;37.93;;;15.40;;
34657;SDS011;20865;43.312;27.152;2023-12-22T00:46:49;37.78;;;15.85;;
34657;SDS011;20865;43.312;27.152;2023-12-22T00:49:16;34.45;;;13.95;;
34657;SDS011;20865;43.312;27.152;2023-12-22T00:51:44;33.98;;;13.93;;
34657;SDS011;20865;43.312;27.152;2023-12-22T00:54:11;35.98;;;14.47;;
34657;SDS011;20865;43.312;27.152;2023-12-22T00:56:39;32.73;;;14.00;;
34657;SDS011;20865;43.312;27.152;2023-12-22T00:59:06;30.30;;;13.50;;
34657;SDS011;20865;43.312;27.152;2023-12-22T01:01:34;34.13;;;13.83;;
34657;SDS011;20865;43.312;27.152;2023-12-22T01:04:02;27.15;;;13.95;;
34657;SDS011;20865;43.312;27.152;2023-12-22T01:06:29;32.03;;;13.58;;
34657;SDS011;20865;43.312;27.152;2023-12-22T01:08:57;28.75;;;13.45;;
34657;SDS011;20865;43.312;27.152;2023-12-22T01:11:24;32.35;;;14.23;;
34657;SDS011;20865;43.312;27.152;2023-12-22T01:13:52;34.40;;;13.58;;
34657;SDS011;20865;43.312;27.152;2023-12-22T01:16:19;34.60;;;13.55;;
34657;SDS011;20865;43.312;27.152;2023-12-22T01:18:48;37.33;;;13.58;;
34657;SDS011;20865;43.312;27.152;2023-12-22T01:21:16;32.98;;;13.28;;
34657;SDS011;20865;43.312;27.152;2023-12-22T01:23:44;32.48;;;12.43;;
34657;SDS011;20865;43.312;27.152;2023-12-22T01:26:11;36.58;;;14.33;;
34657;SDS011;20865;43.312;27.152;2023-12-22T01:28:39;43.42;;;17.77;;
34657;SDS011;20865;43.312;27.152;2023-12-22T01:31:06;40.95;;;15.75;;
34657;SDS011;20865;43.312;27.152;2023-12-22T01:33:34;38.23;;;15.83;;
34657;SDS011;20865;43.312;27.152;2023-12-22T01:36:07;37.80;;;13.20;;
34657;SDS011;20865;43.312;27.152;2023-12-22T01:38:32;36.10;;;13.43;;
34657;SDS011;20865;43.312;27.152;2023-12-22T01:41:00;27.45;;;11.55;;
34657;SDS011;20865;43.312;27.152;2023-12-22T01:43:27;30.95;;;12.10;;
34657;SDS011;20865;43.312;27.152;2023-12-22T01:45:56;30.60;;;11.73;;
34657;SDS011;20865;43.312;27.152;2023-12-22T01:48:25;31.57;;;12.90;;
34657;SDS011;20865;43.312;27.152;2023-12-22T01:50:55;35.03;;;13.18;;
34657;SDS011;20865;43.312;27.152;2023-12-22T01:53:24;27.25;;;10.93;;
34657;SDS011;20865;43.312;27.152;2023-12-22T01:55:53;26.02;;;10.43;;
34657;SDS011;20865;43.312;27.152;2023-12-22T01:58:23;27.62;;;10.65;;
34657;SDS011;20865;43.312;27.152;2023-12-22T02:00:52;26.20;;;11.63;;
34657;SDS011;20865;43.312;27.152;2023-12-22T02:03:21;29.00;;;12.47;;
34657;SDS011;20865;43.312;27.152;2023-12-22T02:05:48;26.97;;;12.28;;
34657;SDS011;20865;43.312;27.152;2023-12-22T02:08:19;32.38;;;13.53;;
34657;SDS011;20865;43.312;27.152;2023-12-22T02:10:49;39.05;;;15.25;;
34657;SDS011;20865;43.312;27.152;2023-12-22T02:13:16;27.55;;;12.33;;
34657;SDS011;20865;43.312;27.152;2023-12-22T02:15:44;20.55;;;9.15;;
34657;SDS011;20865;43.312;27.152;2023-12-22T02:18:18;23.95;;;9.70;;
34657;SDS011;20865;43.312;27.152;2023-12-22T02:20:47;26.87;;;11.15;;
34657;SDS011;20865;43.312;27.152;2023-12-22T02:23:14;27.67;;;11.48;;
34657;SDS011;20865;43.312;27.152;2023-12-22T02:25:42;28.73;;;11.38;;
34657;SDS011;20865;43.312;27.152;2023-12-22T02:28:10;28.17;;;11.70;;
34657;SDS011;20865;43.312;27.152;2023-12-22T02:33:23;28.10;;;12.55;;
34657;SDS011;20865;43.312;27.152;2023-12-22T02:35:52;41.10;;;14.43;;
34657;SDS011;20865;43.312;27.152;2023-12-22T02:38:26;26.07;;;11.90;;
34657;SDS011;20865;43.312;27.152;2023-12-22T02:40:55;27.10;;;11.53;;
34657;SDS011;20865;43.312;27.152;2023-12-22T02:43:23;36.75;;;13.13;;
34657;SDS011;20865;43.312;27.152;2023-12-22T02:45:51;31.20;;;13.18;;
34657;SDS011;20865;43.312;27.152;2023-12-22T02:48:19;33.95;;;13.45;;
34657;SDS011;20865;43.312;27.152;2023-12-22T02:50:46;38.05;;;14.18;;
34657;SDS011;20865;43.312;27.152;2023-12-22T02:53:14;38.75;;;15.40;;
34657;SDS011;20865;43.312;27.152;2023-12-22T02:55:41;39.20;;;14.47;;
34657;SDS011;20865;43.312;27.152;2023-12-22T02:58:09;33.85;;;13.75;;
34657;SDS011;20865;43.312;27.152;2023-12-22T03:00:36;33.20;;;12.70;;
34657;SDS011;20865;43.312;27.152;2023-12-22T03:03:05;28.70;;;12.30;;
34657;SDS011;20865;43.312;27.152;2023-12-22T03:05:33;37.00;;;12.65;;
34657;SDS011;20865;43.312;27.152;2023-12-22T03:08:00;25.97;;;11.35;;
34657;SDS011;20865;43.312;27.152;2023-12-22T03:10:28;40.92;;;14.55;;
34657;SDS011;20865;43.312;27.152;2023-12-22T03:12:56;27.75;;;11.73;;
34657;SDS011;20865;43.312;27.152;2023-12-22T03:15:24;28.47;;;11.80;;
34657;SDS011;20865;43.312;27.152;2023-12-22T03:17:52;38.05;;;15.10;;
34657;SDS011;20865;43.312;27.152;2023-12-22T03:20:19;32.30;;;13.40;;
34657;SDS011;20865;43.312;27.152;2023-12-22T03:22:47;35.08;;;13.22;;
34657;SDS011;20865;43.312;27.152;2023-12-22T03:25:15;36.08;;;14.78;;
34657;SDS011;20865;43.312;27.152;2023-12-22T03:27:42;38.33;;;17.98;;
34657;SDS011;20865;43.312;27.152;2023-12-22T03:30:10;45.73;;;18.35;;
34657;SDS011;20865;43.312;27.152;2023-12-22T03:32:38;41.28;;;14.78;;
34657;SDS011;20865;43.312;27.152;2023-12-22T03:35:06;27.82;;;11.25;;
34657;SDS011;20865;43.312;27.152;2023-12-22T03:37:33;27.40;;;11.55;;
34657;SDS011;20865;43.312;27.152;2023-12-22T03:40:02;26.95;;;11.38;;
34657;SDS011;20865;43.312;27.152;2023-12-22T03:42:29;23.73;;;11.18;;
34657;SDS011;20865;43.312;27.152;2023-12-22T03:44:57;28.10;;;11.65;;
34657;SDS011;20865;43.312;27.152;2023-12-22T03:47:24;26.05;;;10.90;;
34657;SDS011;20865;43.312;27.152;2023-12-22T03:49:52;23.98;;;10.43;;
34657;SDS011;20865;43.312;27.152;2023-12-22T03:52:20;31.73;;;11.40;;
34657;SDS011;20865;43.312;27.152;2023-12-22T03:54:47;21.93;;;9.98;;
34657;SDS011;20865;43.312;27.152;2023-12-22T03:57:16;23.32;;;10.95;;
34657;SDS011;20865;43.312;27.152;2023-12-22T03:59:44;41.05;;;18.52;;
34657;SDS011;20865;43.312;27.152;2023-12-22T04:02:11;40.78;;;19.75;;
34657;SDS011;20865;43.312;27.152;2023-12-22T04:04:39;36.15;;;14.28;;
34657;SDS011;20865;43.312;27.152;2023-12-22T04:07:06;33.73;;;13.05;;
34657;SDS011;20865;43.312;27.152;2023-12-22T04:09:36;22.42;;;10.45;;
34657;SDS011;20865;43.312;27.152;2023-12-22T04:12:06;51.92;;;17.42;;
34657;SDS011;20865;43.312;27.152;2023-12-22T04:14:33;27.90;;;11.65;;
34657;SDS011;20865;43.312;27.152;2023-12-22T04:17:01;27.80;;;11.18;;
34657;SDS011;20865;43.312;27.152;2023-12-22T04:19:29;28.30;;;10.65;;
34657;SDS011;20865;43.312;27.152;2023-12-22T04:21:56;28.12;;;12.10;;
34657;SDS011;20865;43.312;27.152;2023-12-22T04:24:24;22.80;;;9.70;;
34657;SDS011;20865;43.312;27.152;2023-12-22T04:26:51;24.15;;;9.98;;
34657;SDS011;20865;43.312;27.152;2023-12-22T04:29:19;20.27;;;9.18;;
34657;SDS011;20865;43.312;27.152;2023-12-22T04:31:46;19.25;;;8.70;;
34657;SDS011;20865;43.312;27.152;2023-12-22T04:34:14;22.48;;;9.20;;
34657;SDS011;20865;43.312;27.152;2023-12-22T04:36:41;21.95;;;9.53;;
34657;SDS011;20865;43.312;27.152;2023-12-22T04:39:09;24.67;;;8.83;;
34657;SDS011;20865;43.312;27.152;2023-12-22T04:41:38;23.87;;;10.00;;
34657;SDS011;20865;43.312;27.152;2023-12-22T04:44:05;25.10;;;9.95;;
34657;SDS011;20865;43.312;27.152;2023-12-22T04:46:33;25.40;;;9.68;;
34657;SDS011;20865;43.312;27.152;2023-12-22T04:49:00;18.98;;;9.80;;
34657;SDS011;20865;43.312;27.152;2023-12-22T04:51:28;36.08;;;11.43;;
34657;SDS011;20865;43.312;27.152;2023-12-22T04:53:55;29.30;;;12.45;;
34657;SDS011;20865;43.312;27.152;2023-12-22T04:56:23;30.97;;;13.25;;
34657;SDS011;20865;43.312;27.152;2023-12-22T04:58:51;67.03;;;27.73;;
34657;SDS011;20865;43.312;27.152;2023-12-22T05:01:18;129.85;;;54.50;;
34657;SDS011;20865;43.312;27.152;2023-12-22T05:03:46;115.77;;;49.30;;
34657;SDS011;20865;43.312;27.152;2023-12-22T05:06:14;132.07;;;53.45;;
34657;SDS011;20865;43.312;27.152;2023-12-22T05:08:41;85.25;;;34.15;;
34657;SDS011;20865;43.312;27.152;2023-12-22T05:11:09;56.33;;;24.23;;
34657;SDS011;20865;43.312;27.152;2023-12-22T05:13:36;54.70;;;23.45;;
34657;SDS011;20865;43.312;27.152;2023-12-22T05:16:04;45.35;;;20.75;;
34657;SDS011;20865;43.312;27.152;2023-12-22T05:18:32;86.47;;;34.00;;
34657;SDS011;20865;43.312;27.152;2023-12-22T05:20:59;61.18;;;23.62;;
34657;SDS011;20865;43.312;27.152;2023-12-22T05:23:27;155.00;;;54.73;;
34657;SDS011;20865;43.312;27.152;2023-12-22T05:25:56;168.15;;;60.70;;
34657;SDS011;20865;43.312;27.152;2023-12-22T05:28:24;99.15;;;36.08;;
34657;SDS011;20865;43.312;27.152;2023-12-22T05:30:51;119.55;;;41.55;;
34657;SDS011;20865;43.312;27.152;2023-12-22T05:33:19;62.83;;;26.17;;
34657;SDS011;20865;43.312;27.152;2023-12-22T05:35:46;134.72;;;48.33;;
34657;SDS011;20865;43.312;27.152;2023-12-22T05:38:14;147.82;;;52.83;;
34657;SDS011;20865;43.312;27.152;2023-12-22T05:40:41;136.43;;;52.53;;
34657;SDS011;20865;43.312;27.152;2023-12-22T05:43:10;76.10;;;30.12;;
34657;SDS011;20865;43.312;27.152;2023-12-22T05:45:37;82.92;;;32.53;;
34657;SDS011;20865;43.312;27.152;2023-12-22T05:48:05;85.30;;;33.33;;
34657;SDS011;20865;43.312;27.152;2023-12-22T05:50:33;81.63;;;31.55;;
34657;SDS011;20865;43.312;27.152;2023-12-22T05:53:01;106.97;;;39.70;;
34657;SDS011;20865;43.312;27.152;2023-12-22T05:55:28;108.97;;;41.83;;
34657;SDS011;20865;43.312;27.152;2023-12-22T05:57:56;117.72;;;43.83;;
34657;SDS011;20865;43.312;27.152;2023-12-22T06:00:24;114.67;;;44.70;;
34657;SDS011;20865;43.312;27.152;2023-12-22T06:02:51;117.40;;;43.25;;
34657;SDS011;20865;43.312;27.152;2023-12-22T06:05:19;127.12;;;46.75;;
34657;SDS011;20865;43.312;27.152;2023-12-22T06:07:47;142.20;;;49.73;;
34657;SDS011;20865;43.312;27.152;2023-12-22T06:10:15;116.57;;;42.65;;
34657;SDS011;20865;43.312;27.152;2023-12-22T06:12:43;96.97;;;40.15;;
34657;SDS011;20865;43.312;27.152;2023-12-22T06:15:11;90.62;;;37.38;;
34657;SDS011;20865;43.312;27.152;2023-12-22T06:17:38;88.00;;;34.38;;
34657;SDS011;20865;43.312;27.152;2023-12-22T06:20:06;87.55;;;33.63;;
34657;SDS011;20865;43.312;27.152;2023-12-22T06:22:34;87.12;;;34.53;;
34657;SDS011;20865;43.312;27.152;2023-12-22T06:25:02;109.15;;;36.83;;
34657;SDS011;20865;43.312;27.152;2023-12-22T06:27:32;125.65;;;41.68;;
34657;SDS011;20865;43.312;27.152;2023-12-22T06:30:00;111.05;;;40.25;;
34657;SDS011;20865;43.312;27.152;2023-12-22T06:32:27;99.42;;;35.70;;
34657;SDS011;20865;43.312;27.152;2023-12-22T06:34:55;120.47;;;40.78;;
34657;SDS011;20865;43.312;27.152;2023-12-22T06:37:24;109.60;;;38.98;;
34657;SDS011;20865;43.312;27.152;2023-12-22T06:39:51;103.32;;;38.80;;
34657;SDS011;20865;43.312;27.152;2023-12-22T06:42:19;113.05;;;41.25;;
34657;SDS011;20865;43.312;27.152;2023-12-22T06:44:47;133.27;;;42.78;;
34657;SDS011;20865;43.312;27.152;2023-12-22T06:47:15;129.60;;;45.03;;
34657;SDS011;20865;43.312;27.152;2023-12-22T06:49:43;122.13;;;44.50;;
34657;SDS011;20865;43.312;27.152;2023-12-22T06:52:10;124.02;;;45.33;;
34657;SDS011;20865;43.312;27.152;2023-12-22T06:54:38;139.65;;;48.92;;
34657;SDS011;20865;43.312;27.152;2023-12-22T06:57:05;129.80;;;49.20;;
34657;SDS011;20865;43.312;27.152;2023-12-22T06:59:33;128.68;;;50.12;;
34657;SDS011;20865;43.312;27.152;2023-12-22T07:02:00;124.00;;;49.48;;
34657;SDS011;20865;43.312;27.152;2023-12-22T07:07:31;128.82;;;48.70;;
34657;SDS011;20865;43.312;27.152;2023-12-22T07:09:59;138.65;;;54.15;;
34657;SDS011;20865;43.312;27.152;2023-12-22T07:12:27;128.53;;;51.33;;
34657;SDS011;20865;43.312;27.152;2023-12-22T07:14:54;123.18;;;51.15;;
34657;SDS011;20865;43.312;27.152;2023-12-22T07:17:22;112.80;;;45.92;;
34657;SDS011;20865;43.312;27.152;2023-12-22T07:19:49;123.82;;;48.42;;
34657;SDS011;20865;43.312;27.152;2023-12-22T07:22:17;142.85;;;54.18;;
34657;SDS011;20865;43.312;27.152;2023-12-22T07:24:45;146.98;;;57.45;;
34657;SDS011;20865;43.312;27.152;2023-12-22T07:27:12;137.20;;;60.38;;
34657;SDS011;20865;43.312;27.152;2023-12-22T07:29:40;149.00;;;64.70;;
34657;SDS011;20865;43.312;27.152;2023-12-22T07:32:07;139.32;;;62.45;;
34657;SDS011;20865;43.312;27.152;2023-12-22T07:34:35;139.18;;;58.30;;
34657;SDS011;20865;43.312;27.152;2023-12-22T07:37:02;126.33;;;55.95;;
34657;SDS011;20865;43.312;27.152;2023-12-22T07:39:33;142.82;;;53.48;;
34657;SDS011;20865;43.312;27.152;2023-12-22T07:42:01;135.88;;;52.38;;
34657;SDS011;20865;43.312;27.152;2023-12-22T07:44:28;127.82;;;52.38;;
34657;SDS011;20865;43.312;27.152;2023-12-22T07:46:58;130.65;;;50.17;;
34657;SDS011;20865;43.312;27.152;2023-12-22T07:49:26;135.35;;;51.00;;
34657;SDS011;20865;43.312;27.152;2023-12-22T07:51:54;123.40;;;50.52;;
34657;SDS011;20865;43.312;27.152;2023-12-22T07:54:21;114.62;;;49.13;;
34657;SDS011;20865;43.312;27.152;2023-12-22T07:56:49;117.03;;;48.20;;
34657;SDS011;20865;43.312;27.152;2023-12-22T07:59:17;109.45;;;47.70;;
34657;SDS011;20865;43.312;27.152;2023-12-22T08:01:44;118.42;;;51.90;;
34657;SDS011;20865;43.312;27.152;2023-12-22T08:04:12;102.62;;;45.60;;
34657;SDS011;20865;43.312;27.152;2023-12-22T08:06:40;66.20;;;27.93;;
34657;SDS011;20865;43.312;27.152;2023-12-22T08:09:07;57.17;;;26.15;;
34657;SDS011;20865;43.312;27.152;2023-12-22T08:11:35;86.75;;;37.40;;
34657;SDS011;20865;43.312;27.152;2023-12-22T08:14:02;59.88;;;27.32;;
34657;SDS011;20865;43.312;27.152;2023-12-22T08:16:30;50.00;;;22.85;;
34657;SDS011;20865;43.312;27.152;2023-12-22T08:18:58;45.40;;;21.75;;
34657;SDS011;20865;43.312;27.152;2023-12-22T08:21:26;52.10;;;23.12;;
34657;SDS011;20865;43.312;27.152;2023-12-22T08:23:54;47.13;;;21.05;;
34657;SDS011;20865;43.312;27.152;2023-12-22T08:26:21;56.35;;;26.60;;
34657;SDS011;20865;43.312;27.152;2023-12-22T08:28:48;77.87;;;34.85;;
34657;SDS011;20865;43.312;27.152;2023-12-22T08:31:16;88.07;;;38.58;;
34657;SDS011;20865;43.312;27.152;2023-12-22T08:33:43;154.30;;;59.23;;
34657;SDS011;20865;43.312;27.152;2023-12-22T08:36:11;157.07;;;61.35;;
34657;SDS011;20865;43.312;27.152;2023-12-22T08:38:39;156.37;;;60.92;;
34657;SDS011;20865;43.312;27.152;2023-12-22T08:41:07;154.78;;;60.90;;
34657;SDS011;20865;43.312;27.152;2023-12-22T08:43:36;152.25;;;59.38;;
34657;SDS011;20865;43.312;27.152;2023-12-22T08:46:05;135.95;;;55.05;;
34657;SDS011;20865;43.312;27.152;2023-12-22T08:48:38;124.07;;;52.53;;
34657;SDS011;20865;43.312;27.152;2023-12-22T08:51:06;114.52;;;50.08;;
34657;SDS011;20865;43.312;27.152;2023-12-22T08:53:34;112.77;;;48.98;;
34657;SDS011;20865;43.312;27.152;2023-12-22T08:56:03;108.20;;;46.98;;
34657;SDS011;20865;43.312;27.152;2023-12-22T08:58:32;121.55;;;48.08;;
34657;SDS011;20865;43.312;27.152;2023-12-22T09:01:00;97.67;;;42.73;;
34657;SDS011;20865;43.312;27.152;2023-12-22T09:03:27;83.65;;;35.30;;
34657;SDS011;20865;43.312;27.152;2023-12-22T09:05:55;95.38;;;41.37;;
34657;SDS011;20865;43.312;27.152;2023-12-22T09:08:23;92.40;;;39.03;;
34657;SDS011;20865;43.312;27.152;2023-12-22T09:10:52;78.67;;;34.80;;
34657;SDS011;20865;43.312;27.152;2023-12-22T09:13:20;72.30;;;32.70;;
34657;SDS011;20865;43.312;27.152;2023-12-22T09:15:47;68.47;;;31.02;;
34657;SDS011;20865;43.312;27.152;2023-12-22T09:18:15;64.20;;;26.10;;
34657;SDS011;20865;43.312;27.152;2023-12-22T09:20:42;47.73;;;22.37;;
34657;SDS011;20865;43.312;27.152;2023-12-22T09:23:10;59.00;;;24.92;;
34657;SDS011;20865;43.312;27.152;2023-12-22T09:25:37;53.83;;;23.75;;
34657;SDS011;20865;43.312;27.152;2023-12-22T09:28:05;43.02;;;19.98;;
34657;SDS011;20865;43.312;27.152;2023-12-22T09:30:33;45.08;;;18.40;;
34657;SDS011;20865;43.312;27.152;2023-12-22T09:33:00;47.27;;;20.05;;
34657;SDS011;20865;43.312;27.152;2023-12-22T09:35:28;36.65;;;17.32;;
34657;SDS011;20865;43.312;27.152;2023-12-22T09:37:55;53.85;;;22.93;;
34657;SDS011;20865;43.312;27.152;2023-12-22T09:40:24;89.97;;;33.42;;
34657;SDS011;20865;43.312;27.152;2023-12-22T09:42:53;56.70;;;21.30;;
34657;SDS011;20865;43.312;27.152;2023-12-22T09:45:24;50.52;;;23.07;;
34657;SDS011;20865;43.312;27.152;2023-12-22T09:47:52;101.75;;;43.78;;
34657;SDS011;20865;43.312;27.152;2023-12-22T09:50:30;205.62;;;77.87;;
34657;SDS011;20865;43.312;27.152;2023-12-22T09:52:59;205.15;;;79.70;;
34657;SDS011;20865;43.312;27.152;2023-12-22T09:55:30;166.75;;;68.35;;
34657;SDS011;20865;43.312;27.152;2023-12-22T09:57:59;156.18;;;65.95;;
34657;SDS011;20865;43.312;27.152;2023-12-22T10:00:29;187.85;;;80.07;;
34657;SDS011;20865;43.312;27.152;2023-12-22T10:02:59;253.22;;;100.35;;
34657;SDS011;20865;43.312;27.152;2023-12-22T10:05:27;216.23;;;92.40;;
34657;SDS011;20865;43.312;27.152;2023-12-22T10:07:55;211.70;;;88.55;;
34657;SDS011;20865;43.312;27.152;2023-12-22T10:10:31;194.85;;;83.97;;
34657;SDS011;20865;43.312;27.152;2023-12-22T10:12:56;308.82;;;141.25;;
34657;SDS011;20865;43.312;27.152;2023-12-22T10:15:25;177.75;;;79.37;;
34657;SDS011;20865;43.312;27.152;2023-12-22T10:17:53;180.90;;;81.50;;
34657;SDS011;20865;43.312;27.152;2023-12-22T10:20:21;162.97;;;71.85;;
34657;SDS011;20865;43.312;27.152;2023-12-22T10:22:49;149.00;;;65.60;;
34657;SDS011;20865;43.312;27.152;2023-12-22T10:25:19;156.50;;;67.22;;
34657;SDS011;20865;43.312;27.152;2023-12-22T10:27:51;138.18;;;62.83;;
34657;SDS011;20865;43.312;27.152;2023-12-22T10:30:19;141.53;;;62.53;;
34657;SDS011;20865;43.312;27.152;2023-12-22T10:32:50;135.00;;;62.50;;
34657;SDS011;20865;43.312;27.152;2023-12-22T10:35:18;148.00;;;64.75;;
34657;SDS011;20865;43.312;27.152;2023-12-22T10:37:47;183.03;;;78.80;;
34657;SDS011;20865;43.312;27.152;2023-12-22T10:40:16;157.45;;;71.47;;
34657;SDS011;20865;43.312;27.152;2023-12-22T10:42:44;148.32;;;67.42;;
34657;SDS011;20865;43.312;27.152;2023-12-22T10:45:12;147.22;;;65.60;;
34657;SDS011;20865;43.312;27.152;2023-12-22T10:47:40;147.45;;;62.60;;
34657;SDS011;20865;43.312;27.152;2023-12-22T10:50:08;133.95;;;61.55;;
34657;SDS011;20865;43.312;27.152;2023-12-22T10:52:49;113.90;;;53.33;;
34657;SDS011;20865;43.312;27.152;2023-12-22T10:55:19;117.17;;;52.83;;
34657;SDS011;20865;43.312;27.152;2023-12-22T10:57:47;97.47;;;45.83;;
34657;SDS011;20865;43.312;27.152;2023-12-22T11:00:20;107.00;;;46.83;;
34657;SDS011;20865;43.312;27.152;2023-12-22T11:02:47;111.68;;;45.60;;
34657;SDS011;20865;43.312;27.152;2023-12-22T11:05:15;97.80;;;43.98;;
34657;SDS011;20865;43.312;27.152;2023-12-22T11:07:50;96.08;;;41.73;;
34657;SDS011;20865;43.312;27.152;2023-12-22T11:10:21;140.77;;;59.65;;
34657;SDS011;20865;43.312;27.152;2023-12-22T11:12:50;156.43;;;66.47;;
34657;SDS011;20865;43.312;27.152;2023-12-22T11:15:19;129.47;;;58.58;;
34657;SDS011;20865;43.312;27.152;2023-12-22T11:17:48;204.45;;;86.28;;
34657;SDS011;20865;43.312;27.152;2023-12-22T11:20:18;168.13;;;70.87;;
34657;SDS011;20865;43.312;27.152;2023-12-22T11:22:46;132.30;;;56.58;;
34657;SDS011;20865;43.312;27.152;2023-12-22T11:25:16;140.30;;;61.92;;
34657;SDS011;20865;43.312;27.152;2023-12-22T11:27:47;314.42;;;138.10;;
34657;SDS011;20865;43.312;27.152;2023-12-22T11:30:16;164.10;;;75.22;;
34657;SDS011;20865;43.312;27.152;2023-12-22T11:32:47;74.77;;;38.08;;
34657;SDS011;20865;43.312;27.152;2023-12-22T11:35:16;36.90;;;15.88;;
34657;SDS011;20865;43.312;27.152;2023-12-22T11:37:44;25.72;;;12.23;;
34657;SDS011;20865;43.312;27.152;2023-12-22T11:40:13;18.00;;;8.13;;
34657;SDS011;20865;43.312;27.152;2023-12-22T11:42:46;19.48;;;8.50;;
34657;SDS011;20865;43.312;27.152;2023-12-22T11:45:11;21.20;;;9.63;;
34657;SDS011;20865;43.312;27.152;2023-12-22T11:47:40;68.37;;;34.30;;
34657;SDS011;20865;43.312;27.152;2023-12-22T11:50:09;120.70;;;63.33;;
34657;SDS011;20865;43.312;27.152;2023-12-22T11:52:38;69.80;;;37.38;;
34657;SDS011;20865;43.312;27.152;2023-12-22T11:55:06;21.95;;;10.82;;
34657;SDS011;20865;43.312;27.152;2023-12-22T11:57:55;19.05;;;9.08;;
34657;SDS011;20865;43.312;27.152;2023-12-22T12:02:56;19.82;;;9.68;;
34657;SDS011;20865;43.312;27.152;2023-12-22T12:05:24;9.93;;;5.30;;
34657;SDS011;20865;43.312;27.152;2023-12-22T12:07:51;16.10;;;5.65;;
34657;SDS011;20865;43.312;27.152;2023-12-22T12:13:07;8.10;;;3.30;;
34657;SDS011;20865;43.312;27.152;2023-12-22T12:15:36;20.88;;;8.73;;
34657;SDS011;20865;43.312;27.152;2023-12-22T12:18:04;16.02;;;8.03;;
34657;SDS011;20865;43.312;27.152;2023-12-22T12:20:32;25.50;;;11.08;;
34657;SDS011;20865;43.312;27.152;2023-12-22T12:23:03;77.37;;;26.75;;
34657;SDS011;20865;43.312;27.152;2023-12-22T12:25:34;98.22;;;42.10;;
34657;SDS011;20865;43.312;27.152;2023-12-22T12:28:02;84.40;;;36.95;;
34657;SDS011;20865;43.312;27.152;2023-12-22T12:30:35;81.15;;;35.52;;
34657;SDS011;20865;43.312;27.152;2023-12-22T12:33:06;28.00;;;14.00;;
34657;SDS011;20865;43.312;27.152;2023-12-22T12:35:35;27.60;;;13.70;;
34657;SDS011;20865;43.312;27.152;2023-12-22T12:38:04;8.15;;;4.22;;
34657;SDS011;20865;43.312;27.152;2023-12-22T12:40:32;7.50;;;4.33;;
34657;SDS011;20865;43.312;27.152;2023-12-22T12:43:02;11.85;;;3.30;;
34657;SDS011;20865;43.312;27.152;2023-12-22T12:45:30;9.20;;;3.98;;
34657;SDS011;20865;43.312;27.152;2023-12-22T12:48:00;16.65;;;8.50;;
34657;SDS011;20865;43.312;27.152;2023-12-22T12:50:29;6.40;;;3.15;;
34657;SDS011;20865;43.312;27.152;2023-12-22T12:53:01;6.22;;;2.80;;
34657;SDS011;20865;43.312;27.152;2023-12-22T12:55:28;3.98;;;2.22;;
34657;SDS011;20865;43.312;27.152;2023-12-22T12:58:04;4.87;;;2.58;;
34657;SDS011;20865;43.312;27.152;2023-12-22T13:00:32;7.30;;;3.37;;
34657;SDS011;20865;43.312;27.152;2023-12-22T13:03:06;5.78;;;3.02;;
34657;SDS011;20865;43.312;27.152;2023-12-22T13:05:35;5.17;;;2.72;;
34657;SDS011;20865;43.312;27.152;2023-12-22T13:08:06;5.37;;;2.55;;
34657;SDS011;20865;43.312;27.152;2023-12-22T13:10:37;8.73;;;2.55;;
34657;SDS011;20865;43.312;27.152;2023-12-22T13:13:06;4.17;;;2.35;;
34657;SDS011;20865;43.312;27.152;2023-12-22T13:15:34;6.30;;;2.45;;
34657;SDS011;20865;43.312;27.152;2023-12-22T13:18:02;6.97;;;2.15;;
34657;SDS011;20865;43.312;27.152;2023-12-22T13:20:29;83.15;;;32.70;;
34657;SDS011;20865;43.312;27.152;2023-12-22T13:22:57;6.45;;;3.52;;
34657;SDS011;20865;43.312;27.152;2023-12-22T13:25:25;7.60;;;3.37;;
34657;SDS011;20865;43.312;27.152;2023-12-22T13:27:52;4.25;;;2.30;;
34657;SDS011;20865;43.312;27.152;2023-12-22T13:30:37;6.25;;;3.10;;
34657;SDS011;20865;43.312;27.152;2023-12-22T13:33:09;4.35;;;2.65;;
34657;SDS011;20865;43.312;27.152;2023-12-22T13:35:37;6.85;;;3.47;;
34657;SDS011;20865;43.312;27.152;2023-12-22T13:38:06;8.28;;;4.20;;
34657;SDS011;20865;43.312;27.152;2023-12-22T13:40:34;4.92;;;3.00;;
34657;SDS011;20865;43.312;27.152;2023-12-22T13:43:04;6.50;;;2.10;;
34657;SDS011;20865;43.312;27.152;2023-12-22T13:45:32;6.70;;;2.90;;
34657;SDS011;20865;43.312;27.152;2023-12-22T13:48:00;4.00;;;2.40;;
34657;SDS011;20865;43.312;27.152;2023-12-22T13:50:28;4.28;;;1.57;;
34657;SDS011;20865;43.312;27.152;2023-12-22T13:52:55;6.00;;;2.45;;
34657;SDS011;20865;43.312;27.152;2023-12-22T13:55:24;6.08;;;2.75;;
34657;SDS011;20865;43.312;27.152;2023-12-22T13:57:58;5.30;;;3.27;;
34657;SDS011;20865;43.312;27.152;2023-12-22T14:00:24;2.85;;;1.67;;
34657;SDS011;20865;43.312;27.152;2023-12-22T14:02:52;4.17;;;2.25;;
34657;SDS011;20865;43.312;27.152;2023-12-22T14:05:19;2.33;;;1.80;;
34657;SDS011;20865;43.312;27.152;2023-12-22T14:07:47;3.37;;;1.40;;
34657;SDS011;20865;43.312;27.152;2023-12-22T14:10:15;3.20;;;2.02;;
34657;SDS011;20865;43.312;27.152;2023-12-22T14:12:43;6.67;;;1.92;;
34657;SDS011;20865;43.312;27.152;2023-12-22T14:15:11;2.37;;;1.65;;
34657;SDS011;20865;43.312;27.152;2023-12-22T14:17:39;3.70;;;1.95;;
34657;SDS011;20865;43.312;27.152;2023-12-22T14:20:11;3.47;;;2.02;;
34657;SDS011;20865;43.312;27.152;2023-12-22T14:22:38;4.30;;;2.52;;
34657;SDS011;20865;43.312;27.152;2023-12-22T14:25:06;5.25;;;2.70;;
34657;SDS011;20865;43.312;27.152;2023-12-22T14:27:34;6.00;;;3.20;;